OEDF/DMM METAR and TAF weather

Enter ICAO airport designator
Station Type Date Time Source
OEDF METAR 2021/09/16 10:00 UTC NOAA

OEDF 161000Z 35010KT 300V040 CAVOK 42/09 Q1002 NOSIG


Station Type Date Time Source
OEDF Decoded METAR 2021/09/16 10:00 UTC NOAA

Dammam-King Fahd International Airport, Saudi Arabia (OEDF) 26-28N 049-47E
Sep 16, 2021 - 06:00 AM EDT / 2021.09.16 1000 UTC
Wind: from the N (350 degrees) at 12 MPH (10 KT) (direction variable):0
Visibility: greater than 7 mile(s):0
Temperature: 107 F (42 C)
Dew Point: 48 F (9 C)
Relative Humidity: 13%
Pressure (altimeter): 29.59 in. Hg (1002 hPa)
ob: OEDF 161000Z 35010KT 300V040 CAVOK 42/09 Q1002 NOSIG
cycle: 10

Station Type Date Time Source
OEDF TAF 2021/09/16 06:33 UTC NOAA

TAF TAF OEDF 160300Z 1606/1712 36016KT CAVOK
BECMG 1618/1620 28008KT

Example: see airport list